sensor_id;sensor_type;location;lat;lon;timestamp;pressure;altitude;pressure_sealevel;temperature
29423;BMP180;16399;51.686;8.684;2024-01-11T00:00:40;101478.00;;;-5.70
29423;BMP180;16399;51.686;8.684;2024-01-11T00:03:42;101475.00;;;-5.70
29423;BMP180;16399;51.686;8.684;2024-01-11T00:06:45;101480.00;;;-5.70
29423;BMP180;16399;51.686;8.684;2024-01-11T00:09:47;101483.00;;;-5.80
29423;BMP180;16399;51.686;8.684;2024-01-11T00:12:50;101490.00;;;-5.80
29423;BMP180;16399;51.686;8.684;2024-01-11T00:15:52;101489.00;;;-5.80
29423;BMP180;16399;51.686;8.684;2024-01-11T00:18:55;101492.00;;;-5.80
29423;BMP180;16399;51.686;8.684;2024-01-11T00:21:57;101496.00;;;-5.80
29423;BMP180;16399;51.686;8.684;2024-01-11T00:25:00;101494.00;;;-5.70
29423;BMP180;16399;51.686;8.684;2024-01-11T00:28:02;101497.00;;;-5.70
29423;BMP180;16399;51.686;8.684;2024-01-11T00:31:04;101487.00;;;-5.70
29423;BMP180;16399;51.686;8.684;2024-01-11T00:34:07;101493.00;;;-5.70
29423;BMP180;16399;51.686;8.684;2024-01-11T00:37:09;101484.00;;;-5.70
29423;BMP180;16399;51.686;8.684;2024-01-11T00:40:12;101487.00;;;-5.70
29423;BMP180;16399;51.686;8.684;2024-01-11T00:43:14;101491.00;;;-5.70
29423;BMP180;16399;51.686;8.684;2024-01-11T00:46:16;101474.00;;;-5.70
29423;BMP180;16399;51.686;8.684;2024-01-11T00:49:18;101472.00;;;-5.80
29423;BMP180;16399;51.686;8.684;2024-01-11T00:52:21;101484.00;;;-5.80
29423;BMP180;16399;51.686;8.684;2024-01-11T00:55:23;101476.00;;;-5.90
29423;BMP180;16399;51.686;8.684;2024-01-11T00:58:25;101475.00;;;-5.90
29423;BMP180;16399;51.686;8.684;2024-01-11T01:01:28;101476.00;;;-6.00
29423;BMP180;16399;51.686;8.684;2024-01-11T01:04:30;101476.00;;;-6.10
29423;BMP180;16399;51.686;8.684;2024-01-11T01:07:33;101473.00;;;-6.10
29423;BMP180;16399;51.686;8.684;2024-01-11T01:10:35;101478.00;;;-6.10
29423;BMP180;16399;51.686;8.684;2024-01-11T01:13:37;101474.00;;;-6.20
29423;BMP180;16399;51.686;8.684;2024-01-11T01:16:39;101471.00;;;-6.20
29423;BMP180;16399;51.686;8.684;2024-01-11T01:19:42;101457.00;;;-6.20
29423;BMP180;16399;51.686;8.684;2024-01-11T01:22:44;101462.00;;;-6.20
29423;BMP180;16399;51.686;8.684;2024-01-11T01:25:46;101473.00;;;-6.20
29423;BMP180;16399;51.686;8.684;2024-01-11T01:28:49;101471.00;;;-6.10
29423;BMP180;16399;51.686;8.684;2024-01-11T01:31:51;101460.00;;;-6.10
29423;BMP180;16399;51.686;8.684;2024-01-11T01:34:54;101471.00;;;-6.10
29423;BMP180;16399;51.686;8.684;2024-01-11T01:37:56;101477.00;;;-6.10
29423;BMP180;16399;51.686;8.684;2024-01-11T01:40:58;101460.00;;;-6.10
29423;BMP180;16399;51.686;8.684;2024-01-11T01:44:00;101480.00;;;-6.20
29423;BMP180;16399;51.686;8.684;2024-01-11T01:47:04;101483.00;;;-6.20
29423;BMP180;16399;51.686;8.684;2024-01-11T01:50:08;101489.00;;;-6.20
29423;BMP180;16399;51.686;8.684;2024-01-11T01:53:11;101498.00;;;-6.30
29423;BMP180;16399;51.686;8.684;2024-01-11T01:56:14;101493.00;;;-6.30
29423;BMP180;16399;51.686;8.684;2024-01-11T01:59:17;101478.00;;;-6.40
29423;BMP180;16399;51.686;8.684;2024-01-11T02:02:20;101494.00;;;-6.40
29423;BMP180;16399;51.686;8.684;2024-01-11T02:05:23;101485.00;;;-6.40
29423;BMP180;16399;51.686;8.684;2024-01-11T02:08:27;101497.00;;;-6.40
29423;BMP180;16399;51.686;8.684;2024-01-11T02:11:30;101490.00;;;-6.50
29423;BMP180;16399;51.686;8.684;2024-01-11T02:14:33;101494.00;;;-6.50
29423;BMP180;16399;51.686;8.684;2024-01-11T02:17:35;101489.00;;;-6.50
29423;BMP180;16399;51.686;8.684;2024-01-11T02:20:37;101491.00;;;-6.60
29423;BMP180;16399;51.686;8.684;2024-01-11T02:27:03;101488.00;;;-6.70
29423;BMP180;16399;51.686;8.684;2024-01-11T02:30:06;101482.00;;;-6.70
29423;BMP180;16399;51.686;8.684;2024-01-11T02:33:09;101482.00;;;-6.80
29423;BMP180;16399;51.686;8.684;2024-01-11T02:36:11;101500.00;;;-6.80
29423;BMP180;16399;51.686;8.684;2024-01-11T02:39:16;101500.00;;;-6.80
29423;BMP180;16399;51.686;8.684;2024-01-11T02:42:19;101499.00;;;-6.80
29423;BMP180;16399;51.686;8.684;2024-01-11T02:45:21;101515.00;;;-6.80
29423;BMP180;16399;51.686;8.684;2024-01-11T02:48:30;101514.00;;;-6.80
29423;BMP180;16399;51.686;8.684;2024-01-11T02:51:33;101512.00;;;-6.80
29423;BMP180;16399;51.686;8.684;2024-01-11T02:54:35;101493.00;;;-6.80
29423;BMP180;16399;51.686;8.684;2024-01-11T02:57:37;101498.00;;;-6.80
29423;BMP180;16399;51.686;8.684;2024-01-11T03:00:40;101489.00;;;-6.80
29423;BMP180;16399;51.686;8.684;2024-01-11T03:03:42;101481.00;;;-6.80
29423;BMP180;16399;51.686;8.684;2024-01-11T03:06:44;101482.00;;;-6.80
29423;BMP180;16399;51.686;8.684;2024-01-11T03:09:46;101493.00;;;-6.90
29423;BMP180;16399;51.686;8.684;2024-01-11T03:12:49;101489.00;;;-6.90
29423;BMP180;16399;51.686;8.684;2024-01-11T03:15:51;101492.00;;;-7.00
29423;BMP180;16399;51.686;8.684;2024-01-11T03:18:53;101499.00;;;-7.00
29423;BMP180;16399;51.686;8.684;2024-01-11T03:21:56;101494.00;;;-7.00
29423;BMP180;16399;51.686;8.684;2024-01-11T03:24:58;101510.00;;;-7.00
29423;BMP180;16399;51.686;8.684;2024-01-11T03:28:01;101505.00;;;-6.90
29423;BMP180;16399;51.686;8.684;2024-01-11T03:31:03;101500.00;;;-6.90
29423;BMP180;16399;51.686;8.684;2024-01-11T03:34:05;101492.00;;;-7.00
29423;BMP180;16399;51.686;8.684;2024-01-11T03:37:08;101497.00;;;-7.00
29423;BMP180;16399;51.686;8.684;2024-01-11T03:40:11;101498.00;;;-7.00
29423;BMP180;16399;51.686;8.684;2024-01-11T03:43:17;101515.00;;;-7.00
29423;BMP180;16399;51.686;8.684;2024-01-11T03:46:19;101501.00;;;-7.00
29423;BMP180;16399;51.686;8.684;2024-01-11T03:49:21;101502.00;;;-7.00
29423;BMP180;16399;51.686;8.684;2024-01-11T03:52:25;101493.00;;;-7.10
29423;BMP180;16399;51.686;8.684;2024-01-11T03:55:27;101494.00;;;-7.10
29423;BMP180;16399;51.686;8.684;2024-01-11T03:58:29;101493.00;;;-7.10
29423;BMP180;16399;51.686;8.684;2024-01-11T04:01:32;101502.00;;;-7.20
29423;BMP180;16399;51.686;8.684;2024-01-11T04:04:34;101513.00;;;-7.20
29423;BMP180;16399;51.686;8.684;2024-01-11T04:07:37;101525.00;;;-7.20
29423;BMP180;16399;51.686;8.684;2024-01-11T04:10:39;101518.00;;;-7.20
29423;BMP180;16399;51.686;8.684;2024-01-11T04:13:41;101525.00;;;-7.30
29423;BMP180;16399;51.686;8.684;2024-01-11T04:16:44;101514.00;;;-7.30
29423;BMP180;16399;51.686;8.684;2024-01-11T04:19:46;101524.00;;;-7.30
29423;BMP180;16399;51.686;8.684;2024-01-11T04:22:48;101530.00;;;-7.30
29423;BMP180;16399;51.686;8.684;2024-01-11T04:25:51;101526.00;;;-7.30
29423;BMP180;16399;51.686;8.684;2024-01-11T04:28:53;101528.00;;;-7.30
29423;BMP180;16399;51.686;8.684;2024-01-11T04:31:56;101543.00;;;-7.30
29423;BMP180;16399;51.686;8.684;2024-01-11T04:34:59;101545.00;;;-7.30
29423;BMP180;16399;51.686;8.684;2024-01-11T04:38:01;101554.00;;;-7.30
29423;BMP180;16399;51.686;8.684;2024-01-11T04:41:08;101555.00;;;-7.40
29423;BMP180;16399;51.686;8.684;2024-01-11T04:44:11;101586.00;;;-7.30
29423;BMP180;16399;51.686;8.684;2024-01-11T04:47:13;101585.00;;;-7.30
29423;BMP180;16399;51.686;8.684;2024-01-11T04:50:15;101562.00;;;-7.20
29423;BMP180;16399;51.686;8.684;2024-01-11T04:53:18;101573.00;;;-7.20
29423;BMP180;16399;51.686;8.684;2024-01-11T04:56:20;101566.00;;;-7.20
29423;BMP180;16399;51.686;8.684;2024-01-11T04:59:23;101577.00;;;-7.20
29423;BMP180;16399;51.686;8.684;2024-01-11T05:02:25;101581.00;;;-7.20
29423;BMP180;16399;51.686;8.684;2024-01-11T05:05:27;101585.00;;;-7.20
29423;BMP180;16399;51.686;8.684;2024-01-11T05:08:30;101582.00;;;-7.20
29423;BMP180;16399;51.686;8.684;2024-01-11T05:11:32;101590.00;;;-7.20
29423;BMP180;16399;51.686;8.684;2024-01-11T05:14:35;101598.00;;;-7.20
29423;BMP180;16399;51.686;8.684;2024-01-11T05:17:37;101591.00;;;-7.20
29423;BMP180;16399;51.686;8.684;2024-01-11T05:20:40;101582.00;;;-7.20
29423;BMP180;16399;51.686;8.684;2024-01-11T05:23:42;101582.00;;;-7.20
29423;BMP180;16399;51.686;8.684;2024-01-11T05:26:45;101567.00;;;-7.20
29423;BMP180;16399;51.686;8.684;2024-01-11T05:29:47;101567.00;;;-7.30
29423;BMP180;16399;51.686;8.684;2024-01-11T05:32:50;101558.00;;;-7.30
29423;BMP180;16399;51.686;8.684;2024-01-11T05:35:52;101544.00;;;-7.30
29423;BMP180;16399;51.686;8.684;2024-01-11T05:38:54;101524.00;;;-7.30
29423;BMP180;16399;51.686;8.684;2024-01-11T05:41:57;101524.00;;;-7.30
29423;BMP180;16399;51.686;8.684;2024-01-11T05:44:59;101514.00;;;-7.20
29423;BMP180;16399;51.686;8.684;2024-01-11T05:48:01;101508.00;;;-7.20
29423;BMP180;16399;51.686;8.684;2024-01-11T05:51:04;101533.00;;;-7.10
29423;BMP180;16399;51.686;8.684;2024-01-11T05:54:06;101544.00;;;-7.00
29423;BMP180;16399;51.686;8.684;2024-01-11T05:57:08;101564.00;;;-6.90
29423;BMP180;16399;51.686;8.684;2024-01-11T06:00:11;101556.00;;;-6.80
29423;BMP180;16399;51.686;8.684;2024-01-11T06:03:13;101561.00;;;-6.80
29423;BMP180;16399;51.686;8.684;2024-01-11T06:06:16;101561.00;;;-6.80
29423;BMP180;16399;51.686;8.684;2024-01-11T06:09:18;101557.00;;;-6.80
29423;BMP180;16399;51.686;8.684;2024-01-11T06:12:20;101567.00;;;-6.80
29423;BMP180;16399;51.686;8.684;2024-01-11T06:15:23;101548.00;;;-6.80
29423;BMP180;16399;51.686;8.684;2024-01-11T06:18:25;101551.00;;;-6.80
29423;BMP180;16399;51.686;8.684;2024-01-11T06:21:27;101545.00;;;-6.80
29423;BMP180;16399;51.686;8.684;2024-01-11T06:24:30;101551.00;;;-6.80
29423;BMP180;16399;51.686;8.684;2024-01-11T06:27:32;101554.00;;;-6.80
29423;BMP180;16399;51.686;8.684;2024-01-11T06:30:34;101544.00;;;-6.80
29423;BMP180;16399;51.686;8.684;2024-01-11T06:33:37;101569.00;;;-6.80
29423;BMP180;16399;51.686;8.684;2024-01-11T06:36:39;101568.00;;;-6.80
29423;BMP180;16399;51.686;8.684;2024-01-11T06:39:41;101577.00;;;-6.80
29423;BMP180;16399;51.686;8.684;2024-01-11T06:42:44;101577.00;;;-6.80
29423;BMP180;16399;51.686;8.684;2024-01-11T06:45:46;101571.00;;;-6.80
29423;BMP180;16399;51.686;8.684;2024-01-11T06:48:48;101582.00;;;-6.80
29423;BMP180;16399;51.686;8.684;2024-01-11T06:51:51;101586.00;;;-6.80
29423;BMP180;16399;51.686;8.684;2024-01-11T06:54:53;101602.00;;;-6.70
29423;BMP180;16399;51.686;8.684;2024-01-11T06:57:55;101608.00;;;-6.70
29423;BMP180;16399;51.686;8.684;2024-01-11T07:00:59;101589.00;;;-6.60
29423;BMP180;16399;51.686;8.684;2024-01-11T07:04:01;101598.00;;;-6.60
29423;BMP180;16399;51.686;8.684;2024-01-11T07:07:03;101589.00;;;-6.60
29423;BMP180;16399;51.686;8.684;2024-01-11T07:10:06;101588.00;;;-6.60
29423;BMP180;16399;51.686;8.684;2024-01-11T07:13:10;101579.00;;;-6.60
29423;BMP180;16399;51.686;8.684;2024-01-11T07:16:13;101562.00;;;-6.60
29423;BMP180;16399;51.686;8.684;2024-01-11T07:19:15;101575.00;;;-6.60
29423;BMP180;16399;51.686;8.684;2024-01-11T07:22:18;101557.00;;;-6.60
29423;BMP180;16399;51.686;8.684;2024-01-11T07:25:20;101551.00;;;-6.60
29423;BMP180;16399;51.686;8.684;2024-01-11T07:28:23;101563.00;;;-6.60
29423;BMP180;16399;51.686;8.684;2024-01-11T07:31:26;101562.00;;;-6.60
29423;BMP180;16399;51.686;8.684;2024-01-11T07:34:29;101530.00;;;-6.60
29423;BMP180;16399;51.686;8.684;2024-01-11T07:37:31;101552.00;;;-6.50
29423;BMP180;16399;51.686;8.684;2024-01-11T07:40:33;101561.00;;;-6.50
29423;BMP180;16399;51.686;8.684;2024-01-11T07:43:36;101566.00;;;-6.50
29423;BMP180;16399;51.686;8.684;2024-01-11T07:46:38;101565.00;;;-6.50
29423;BMP180;16399;51.686;8.684;2024-01-11T07:49:40;101559.00;;;-6.40
29423;BMP180;16399;51.686;8.684;2024-01-11T07:52:43;101568.00;;;-6.40
29423;BMP180;16399;51.686;8.684;2024-01-11T07:55:46;101572.00;;;-6.40
29423;BMP180;16399;51.686;8.684;2024-01-11T07:58:49;101590.00;;;-6.40
29423;BMP180;16399;51.686;8.684;2024-01-11T08:01:51;101594.00;;;-6.40
29423;BMP180;16399;51.686;8.684;2024-01-11T08:04:55;101596.00;;;-6.30
29423;BMP180;16399;51.686;8.684;2024-01-11T08:07:57;101602.00;;;-6.30
29423;BMP180;16399;51.686;8.684;2024-01-11T08:11:01;101599.00;;;-6.30
29423;BMP180;16399;51.686;8.684;2024-01-11T08:14:05;101603.00;;;-6.30
29423;BMP180;16399;51.686;8.684;2024-01-11T08:17:07;101616.00;;;-6.30
29423;BMP180;16399;51.686;8.684;2024-01-11T08:20:10;101616.00;;;-6.20
29423;BMP180;16399;51.686;8.684;2024-01-11T08:23:13;101613.00;;;-6.20
29423;BMP180;16399;51.686;8.684;2024-01-11T08:26:15;101602.00;;;-6.10
29423;BMP180;16399;51.686;8.684;2024-01-11T08:29:19;101607.00;;;-6.10
29423;BMP180;16399;51.686;8.684;2024-01-11T08:32:22;101597.00;;;-6.00
29423;BMP180;16399;51.686;8.684;2024-01-11T08:35:24;101594.00;;;-5.80
29423;BMP180;16399;51.686;8.684;2024-01-11T08:38:26;101590.00;;;-5.70
29423;BMP180;16399;51.686;8.684;2024-01-11T08:41:30;101598.00;;;-5.60
29423;BMP180;16399;51.686;8.684;2024-01-11T08:44:32;101593.00;;;-5.50
29423;BMP180;16399;51.686;8.684;2024-01-11T08:47:35;101588.00;;;-5.40
29423;BMP180;16399;51.686;8.684;2024-01-11T08:50:39;101596.00;;;-5.30
29423;BMP180;16399;51.686;8.684;2024-01-11T08:53:42;101592.00;;;-5.20
29423;BMP180;16399;51.686;8.684;2024-01-11T08:56:44;101592.00;;;-5.10
29423;BMP180;16399;51.686;8.684;2024-01-11T08:59:47;101602.00;;;-5.10
29423;BMP180;16399;51.686;8.684;2024-01-11T09:02:49;101619.00;;;-5.00
29423;BMP180;16399;51.686;8.684;2024-01-11T09:05:51;101622.00;;;-4.90
29423;BMP180;16399;51.686;8.684;2024-01-11T09:08:53;101602.00;;;-4.80
29423;BMP180;16399;51.686;8.684;2024-01-11T09:11:56;101626.00;;;-4.70
29423;BMP180;16399;51.686;8.684;2024-01-11T09:14:58;101622.00;;;-4.60
29423;BMP180;16399;51.686;8.684;2024-01-11T09:18:00;101628.00;;;-4.50
29423;BMP180;16399;51.686;8.684;2024-01-11T09:21:03;101638.00;;;-4.40
29423;BMP180;16399;51.686;8.684;2024-01-11T09:24:05;101639.00;;;-4.30
29423;BMP180;16399;51.686;8.684;2024-01-11T09:27:07;101637.00;;;-4.20
29423;BMP180;16399;51.686;8.684;2024-01-11T09:30:10;101638.00;;;-4.10
29423;BMP180;16399;51.686;8.684;2024-01-11T09:33:12;101634.00;;;-4.00
29423;BMP180;16399;51.686;8.684;2024-01-11T09:36:14;101634.00;;;-4.00
29423;BMP180;16399;51.686;8.684;2024-01-11T09:39:17;101632.00;;;-3.90
29423;BMP180;16399;51.686;8.684;2024-01-11T09:42:19;101642.00;;;-3.80
29423;BMP180;16399;51.686;8.684;2024-01-11T09:45:21;101626.00;;;-3.80
29423;BMP180;16399;51.686;8.684;2024-01-11T09:48:25;101629.00;;;-3.70
29423;BMP180;16399;51.686;8.684;2024-01-11T09:51:29;101624.00;;;-3.60
29423;BMP180;16399;51.686;8.684;2024-01-11T09:54:31;101613.00;;;-3.60
29423;BMP180;16399;51.686;8.684;2024-01-11T09:57:35;101614.00;;;-3.50
29423;BMP180;16399;51.686;8.684;2024-01-11T10:00:39;101609.00;;;-3.40
29423;BMP180;16399;51.686;8.684;2024-01-11T10:03:42;101598.00;;;-3.30
29423;BMP180;16399;51.686;8.684;2024-01-11T10:06:44;101564.00;;;-3.20
29423;BMP180;16399;51.686;8.684;2024-01-11T10:09:47;101592.00;;;-3.10
29423;BMP180;16399;51.686;8.684;2024-01-11T10:12:50;101593.00;;;-3.00
29423;BMP180;16399;51.686;8.684;2024-01-11T10:15:52;101603.00;;;-3.00
29423;BMP180;16399;51.686;8.684;2024-01-11T10:18:55;101602.00;;;-2.90
29423;BMP180;16399;51.686;8.684;2024-01-11T10:21:58;101612.00;;;-2.80
29423;BMP180;16399;51.686;8.684;2024-01-11T10:25:17;101601.00;;;-2.70
29423;BMP180;16399;51.686;8.684;2024-01-11T10:28:18;101595.00;;;-2.70
29423;BMP180;16399;51.686;8.684;2024-01-11T10:31:22;101584.00;;;-2.60
29423;BMP180;16399;51.686;8.684;2024-01-11T10:34:26;101576.00;;;-2.50
29423;BMP180;16399;51.686;8.684;2024-01-11T10:37:30;101574.00;;;-2.40
29423;BMP180;16399;51.686;8.684;2024-01-11T10:40:35;101581.00;;;-2.40
29423;BMP180;16399;51.686;8.684;2024-01-11T10:43:38;101592.00;;;-2.40
29423;BMP180;16399;51.686;8.684;2024-01-11T10:46:41;101584.00;;;-2.30
29423;BMP180;16399;51.686;8.684;2024-01-11T10:49:45;101573.00;;;-2.20
29423;BMP180;16399;51.686;8.684;2024-01-11T10:53:25;101562.00;;;-2.20
29423;BMP180;16399;51.686;8.684;2024-01-11T10:56:01;101559.00;;;-2.10
29423;BMP180;16399;51.686;8.684;2024-01-11T10:59:05;101564.00;;;-2.00
29423;BMP180;16399;51.686;8.684;2024-01-11T11:02:08;101566.00;;;-1.90
29423;BMP180;16399;51.686;8.684;2024-01-11T11:05:13;101569.00;;;-1.90
29423;BMP180;16399;51.686;8.684;2024-01-11T11:08:17;101572.00;;;-1.80
29423;BMP180;16399;51.686;8.684;2024-01-11T11:11:21;101564.00;;;-1.80
29423;BMP180;16399;51.686;8.684;2024-01-11T11:14:25;101557.00;;;-1.70
29423;BMP180;16399;51.686;8.684;2024-01-11T11:17:27;101549.00;;;-1.70
29423;BMP180;16399;51.686;8.684;2024-01-11T11:20:32;101550.00;;;-1.60
29423;BMP180;16399;51.686;8.684;2024-01-11T11:23:34;101551.00;;;-1.50
29423;BMP180;16399;51.686;8.684;2024-01-11T11:26:36;101561.00;;;-1.50
29423;BMP180;16399;51.686;8.684;2024-01-11T11:29:39;101562.00;;;-1.30
29423;BMP180;16399;51.686;8.684;2024-01-11T11:32:43;101553.00;;;-1.20
29423;BMP180;16399;51.686;8.684;2024-01-11T11:35:52;101566.00;;;-1.10
29423;BMP180;16399;51.686;8.684;2024-01-11T11:38:53;101548.00;;;-1.00
29423;BMP180;16399;51.686;8.684;2024-01-11T11:41:58;101543.00;;;-0.90
29423;BMP180;16399;51.686;8.684;2024-01-11T11:45:02;101552.00;;;-0.80
29423;BMP180;16399;51.686;8.684;2024-01-11T11:51:40;101568.00;;;-0.60
29423;BMP180;16399;51.686;8.684;2024-01-11T11:54:42;101558.00;;;-0.50
29423;BMP180;16399;51.686;8.684;2024-01-11T11:57:46;101554.00;;;-0.50
29423;BMP180;16399;51.686;8.684;2024-01-11T12:00:49;101554.00;;;-0.40
29423;BMP180;16399;51.686;8.684;2024-01-11T12:03:52;101547.00;;;-0.30
29423;BMP180;16399;51.686;8.684;2024-01-11T12:06:55;101552.00;;;-0.40
29423;BMP180;16399;51.686;8.684;2024-01-11T12:09:57;101556.00;;;-0.50
29423;BMP180;16399;51.686;8.684;2024-01-11T12:12:59;101544.00;;;-0.50
29423;BMP180;16399;51.686;8.684;2024-01-11T12:16:02;101551.00;;;-0.50
29423;BMP180;16399;51.686;8.684;2024-01-11T12:19:06;101556.00;;;-0.50
29423;BMP180;16399;51.686;8.684;2024-01-11T12:22:08;101560.00;;;-0.40
29423;BMP180;16399;51.686;8.684;2024-01-11T12:25:11;101554.00;;;-0.40
29423;BMP180;16399;51.686;8.684;2024-01-11T12:28:14;101555.00;;;-0.40
29423;BMP180;16399;51.686;8.684;2024-01-11T12:31:16;101537.00;;;-0.40
29423;BMP180;16399;51.686;8.684;2024-01-11T12:34:21;101535.00;;;-0.30
29423;BMP180;16399;51.686;8.684;2024-01-11T12:37:24;101543.00;;;-0.30
29423;BMP180;16399;51.686;8.684;2024-01-11T12:40:27;101534.00;;;-0.20
29423;BMP180;16399;51.686;8.684;2024-01-11T12:43:30;101535.00;;;-0.20
29423;BMP180;16399;51.686;8.684;2024-01-11T12:46:32;101527.00;;;-0.10
29423;BMP180;16399;51.686;8.684;2024-01-11T12:49:35;101537.00;;;0.00
29423;BMP180;16399;51.686;8.684;2024-01-11T12:52:37;101532.00;;;0.00
29423;BMP180;16399;51.686;8.684;2024-01-11T12:55:39;101523.00;;;0.10
29423;BMP180;16399;51.686;8.684;2024-01-11T12:58:42;101522.00;;;0.10
29423;BMP180;16399;51.686;8.684;2024-01-11T13:01:46;101517.00;;;0.10
29423;BMP180;16399;51.686;8.684;2024-01-11T13:04:50;101512.00;;;0.10
29423;BMP180;16399;51.686;8.684;2024-01-11T13:07:53;101505.00;;;0.10
29423;BMP180;16399;51.686;8.684;2024-01-11T13:10:55;101500.00;;;0.10
29423;BMP180;16399;51.686;8.684;2024-01-11T13:13:57;101488.00;;;0.20
29423;BMP180;16399;51.686;8.684;2024-01-11T13:17:01;101491.00;;;0.10
29423;BMP180;16399;51.686;8.684;2024-01-11T13:20:04;101482.00;;;0.20
29423;BMP180;16399;51.686;8.684;2024-01-11T13:23:18;101491.00;;;0.20
29423;BMP180;16399;51.686;8.684;2024-01-11T13:26:23;101489.00;;;0.20
29423;BMP180;16399;51.686;8.684;2024-01-11T13:29:26;101480.00;;;0.20
29423;BMP180;16399;51.686;8.684;2024-01-11T13:32:28;101499.00;;;0.20
29423;BMP180;16399;51.686;8.684;2024-01-11T13:35:30;101494.00;;;0.30
29423;BMP180;16399;51.686;8.684;2024-01-11T13:38:33;101492.00;;;0.30
29423;BMP180;16399;51.686;8.684;2024-01-11T13:41:35;101494.00;;;0.40
29423;BMP180;16399;51.686;8.684;2024-01-11T13:44:39;101498.00;;;0.30
29423;BMP180;16399;51.686;8.684;2024-01-11T13:47:41;101518.00;;;0.30
29423;BMP180;16399;51.686;8.684;2024-01-11T13:50:43;101503.00;;;0.40
29423;BMP180;16399;51.686;8.684;2024-01-11T13:53:45;101505.00;;;0.40
29423;BMP180;16399;51.686;8.684;2024-01-11T13:56:48;101510.00;;;0.30
29423;BMP180;16399;51.686;8.684;2024-01-11T13:59:50;101501.00;;;0.40
29423;BMP180;16399;51.686;8.684;2024-01-11T14:02:53;101497.00;;;0.30
29423;BMP180;16399;51.686;8.684;2024-01-11T14:05:55;101507.00;;;0.40
29423;BMP180;16399;51.686;8.684;2024-01-11T14:08:58;101514.00;;;0.40
29423;BMP180;16399;51.686;8.684;2024-01-11T14:12:00;101515.00;;;0.40
29423;BMP180;16399;51.686;8.684;2024-01-11T14:15:04;101501.00;;;0.40
29423;BMP180;16399;51.686;8.684;2024-01-11T14:18:07;101513.00;;;0.40
29423;BMP180;16399;51.686;8.684;2024-01-11T14:21:10;101499.00;;;0.30
29423;BMP180;16399;51.686;8.684;2024-01-11T14:24:12;101496.00;;;0.30
29423;BMP180;16399;51.686;8.684;2024-01-11T14:27:15;101495.00;;;0.30
29423;BMP180;16399;51.686;8.684;2024-01-11T14:30:17;101489.00;;;0.20
29423;BMP180;16399;51.686;8.684;2024-01-11T14:33:20;101494.00;;;0.20
29423;BMP180;16399;51.686;8.684;2024-01-11T14:36:22;101497.00;;;0.20
29423;BMP180;16399;51.686;8.684;2024-01-11T14:39:24;101516.00;;;0.20
29423;BMP180;16399;51.686;8.684;2024-01-11T14:42:27;101525.00;;;0.10
29423;BMP180;16399;51.686;8.684;2024-01-11T14:45:30;101525.00;;;0.10
29423;BMP180;16399;51.686;8.684;2024-01-11T14:48:32;101542.00;;;0.10
29423;BMP180;16399;51.686;8.684;2024-01-11T14:51:34;101550.00;;;0.10
29423;BMP180;16399;51.686;8.684;2024-01-11T14:54:38;101540.00;;;0.10
29423;BMP180;16399;51.686;8.684;2024-01-11T14:57:40;101537.00;;;0.10
29423;BMP180;16399;51.686;8.684;2024-01-11T15:00:43;101530.00;;;0.10
29423;BMP180;16399;51.686;8.684;2024-01-11T15:03:45;101541.00;;;0.00
29423;BMP180;16399;51.686;8.684;2024-01-11T15:06:47;101538.00;;;0.00
29423;BMP180;16399;51.686;8.684;2024-01-11T15:09:49;101541.00;;;0.00
29423;BMP180;16399;51.686;8.684;2024-01-11T15:12:52;101549.00;;;0.00
29423;BMP180;16399;51.686;8.684;2024-01-11T15:15:54;101543.00;;;0.00
29423;BMP180;16399;51.686;8.684;2024-01-11T15:18:57;101536.00;;;0.00
29423;BMP180;16399;51.686;8.684;2024-01-11T15:21:59;101534.00;;;-0.10
29423;BMP180;16399;51.686;8.684;2024-01-11T15:25:02;101547.00;;;-0.10
29423;BMP180;16399;51.686;8.684;2024-01-11T15:28:04;101545.00;;;-0.10
29423;BMP180;16399;51.686;8.684;2024-01-11T15:31:06;101541.00;;;-0.10
29423;BMP180;16399;51.686;8.684;2024-01-11T15:34:09;101524.00;;;-0.10
29423;BMP180;16399;51.686;8.684;2024-01-11T15:37:11;101535.00;;;-0.10
29423;BMP180;16399;51.686;8.684;2024-01-11T15:40:13;101535.00;;;-0.20
29423;BMP180;16399;51.686;8.684;2024-01-11T15:43:16;101521.00;;;-0.20
29423;BMP180;16399;51.686;8.684;2024-01-11T15:46:18;101520.00;;;-0.20
29423;BMP180;16399;51.686;8.684;2024-01-11T15:49:21;101523.00;;;-0.20
29423;BMP180;16399;51.686;8.684;2024-01-11T15:52:23;101531.00;;;-0.20
29423;BMP180;16399;51.686;8.684;2024-01-11T15:55:26;101548.00;;;-0.30
29423;BMP180;16399;51.686;8.684;2024-01-11T15:58:28;101545.00;;;-0.30
29423;BMP180;16399;51.686;8.684;2024-01-11T16:01:30;101545.00;;;-0.30
29423;BMP180;16399;51.686;8.684;2024-01-11T16:04:34;101553.00;;;-0.30
29423;BMP180;16399;51.686;8.684;2024-01-11T16:07:38;101560.00;;;-0.30
29423;BMP180;16399;51.686;8.684;2024-01-11T16:10:40;101558.00;;;-0.30
29423;BMP180;16399;51.686;8.684;2024-01-11T16:13:43;101568.00;;;-0.30
29423;BMP180;16399;51.686;8.684;2024-01-11T16:16:47;101571.00;;;-0.30
29423;BMP180;16399;51.686;8.684;2024-01-11T16:19:49;101558.00;;;-0.30
29423;BMP180;16399;51.686;8.684;2024-01-11T16:22:51;101549.00;;;-0.20
29423;BMP180;16399;51.686;8.684;2024-01-11T16:25:54;101557.00;;;-0.20
29423;BMP180;16399;51.686;8.684;2024-01-11T16:28:56;101532.00;;;-0.20
29423;BMP180;16399;51.686;8.684;2024-01-11T16:31:58;101536.00;;;-0.30
29423;BMP180;16399;51.686;8.684;2024-01-11T16:35:00;101538.00;;;-0.30
29423;BMP180;16399;51.686;8.684;2024-01-11T16:38:03;101541.00;;;-0.30
29423;BMP180;16399;51.686;8.684;2024-01-11T16:41:09;101563.00;;;-0.30
29423;BMP180;16399;51.686;8.684;2024-01-11T16:44:11;101555.00;;;-0.30
29423;BMP180;16399;51.686;8.684;2024-01-11T16:47:14;101567.00;;;-0.30
29423;BMP180;16399;51.686;8.684;2024-01-11T16:50:17;101557.00;;;-0.30
29423;BMP180;16399;51.686;8.684;2024-01-11T16:53:21;101544.00;;;-0.30
29423;BMP180;16399;51.686;8.684;2024-01-11T16:56:24;101541.00;;;-0.30
29423;BMP180;16399;51.686;8.684;2024-01-11T16:59:26;101538.00;;;-0.30
29423;BMP180;16399;51.686;8.684;2024-01-11T17:02:28;101538.00;;;-0.30
29423;BMP180;16399;51.686;8.684;2024-01-11T17:05:33;101543.00;;;-0.40
29423;BMP180;16399;51.686;8.684;2024-01-11T17:08:35;101495.00;;;-0.40
29423;BMP180;16399;51.686;8.684;2024-01-11T17:11:40;101527.00;;;-0.40
29423;BMP180;16399;51.686;8.684;2024-01-11T17:14:43;101536.00;;;-0.40
29423;BMP180;16399;51.686;8.684;2024-01-11T17:17:45;101531.00;;;-0.40
29423;BMP180;16399;51.686;8.684;2024-01-11T17:20:48;101546.00;;;-0.40
29423;BMP180;16399;51.686;8.684;2024-01-11T17:23:50;101547.00;;;-0.30
29423;BMP180;16399;51.686;8.684;2024-01-11T17:26:52;101547.00;;;-0.30